sensor_id;sensor_type;location;lat;lon;timestamp;temperature;humidity
23377;DHT22;14353;46.070;13.222;2023-07-20T00:00:52;33.10;49.40
23377;DHT22;14353;46.070;13.222;2023-07-20T00:03:19;33.10;49.40
23377;DHT22;14353;46.070;13.222;2023-07-20T00:05:49;33.10;49.50
23377;DHT22;14353;46.070;13.222;2023-07-20T00:08:15;33.00;49.40
23377;DHT22;14353;46.070;13.222;2023-07-20T00:10:42;33.10;49.50
23377;DHT22;14353;46.070;13.222;2023-07-20T00:13:08;33.00;49.40
23377;DHT22;14353;46.070;13.222;2023-07-20T00:15:34;33.10;49.50
23377;DHT22;14353;46.070;13.222;2023-07-20T00:18:00;33.00;49.40
23377;DHT22;14353;46.070;13.222;2023-07-20T00:20:25;33.00;49.50
23377;DHT22;14353;46.070;13.222;2023-07-20T00:22:51;33.00;49.50
23377;DHT22;14353;46.070;13.222;2023-07-20T00:25:18;33.00;49.40
23377;DHT22;14353;46.070;13.222;2023-07-20T00:27:44;33.00;49.40
23377;DHT22;14353;46.070;13.222;2023-07-20T00:30:10;33.00;49.40
23377;DHT22;14353;46.070;13.222;2023-07-20T00:32:35;33.00;49.50
23377;DHT22;14353;46.070;13.222;2023-07-20T00:35:01;33.00;49.50
23377;DHT22;14353;46.070;13.222;2023-07-20T00:37:27;33.00;49.50
23377;DHT22;14353;46.070;13.222;2023-07-20T00:39:53;33.00;49.50
23377;DHT22;14353;46.070;13.222;2023-07-20T00:42:19;33.00;49.50
23377;DHT22;14353;46.070;13.222;2023-07-20T00:44:44;33.00;49.50
23377;DHT22;14353;46.070;13.222;2023-07-20T00:47:10;33.00;49.60
23377;DHT22;14353;46.070;13.222;2023-07-20T00:49:36;33.00;49.50
23377;DHT22;14353;46.070;13.222;2023-07-20T00:52:03;33.00;49.50
23377;DHT22;14353;46.070;13.222;2023-07-20T00:54:31;33.00;49.60
23377;DHT22;14353;46.070;13.222;2023-07-20T00:56:57;32.90;50.20
23377;DHT22;14353;46.070;13.222;2023-07-20T00:59:23;32.90;49.50
23377;DHT22;14353;46.070;13.222;2023-07-20T01:01:49;32.90;49.60
23377;DHT22;14353;46.070;13.222;2023-07-20T01:04:15;32.90;49.50
23377;DHT22;14353;46.070;13.222;2023-07-20T01:06:55;32.90;49.50
23377;DHT22;14353;46.070;13.222;2023-07-20T01:12:12;32.90;49.60
23377;DHT22;14353;46.070;13.222;2023-07-20T01:14:39;32.90;49.60
23377;DHT22;14353;46.070;13.222;2023-07-20T01:17:05;32.90;49.60
23377;DHT22;14353;46.070;13.222;2023-07-20T01:19:31;32.90;49.60
23377;DHT22;14353;46.070;13.222;2023-07-20T01:28:22;32.90;49.70
23377;DHT22;14353;46.070;13.222;2023-07-20T01:33:36;32.90;49.60
23377;DHT22;14353;46.070;13.222;2023-07-20T01:36:02;32.90;49.60
23377;DHT22;14353;46.070;13.222;2023-07-20T01:38:28;32.90;49.70
23377;DHT22;14353;46.070;13.222;2023-07-20T01:40:55;32.80;50.00
23377;DHT22;14353;46.070;13.222;2023-07-20T01:43:21;32.80;49.60
23377;DHT22;14353;46.070;13.222;2023-07-20T01:45:47;32.80;49.60
23377;DHT22;14353;46.070;13.222;2023-07-20T01:48:13;32.80;49.70
23377;DHT22;14353;46.070;13.222;2023-07-20T01:50:38;32.80;49.70
23377;DHT22;14353;46.070;13.222;2023-07-20T01:53:04;32.80;49.60
23377;DHT22;14353;46.070;13.222;2023-07-20T01:55:30;32.80;49.70
23377;DHT22;14353;46.070;13.222;2023-07-20T01:57:55;32.80;49.70
23377;DHT22;14353;46.070;13.222;2023-07-20T02:00:22;32.80;49.70
23377;DHT22;14353;46.070;13.222;2023-07-20T02:02:50;32.80;49.70
23377;DHT22;14353;46.070;13.222;2023-07-20T02:05:16;32.80;49.80
23377;DHT22;14353;46.070;13.222;2023-07-20T02:07:42;32.80;49.70
23377;DHT22;14353;46.070;13.222;2023-07-20T02:10:08;32.80;49.70
23377;DHT22;14353;46.070;13.222;2023-07-20T02:12:34;32.80;49.70
23377;DHT22;14353;46.070;13.222;2023-07-20T02:15:00;32.80;49.70
23377;DHT22;14353;46.070;13.222;2023-07-20T02:17:26;32.80;49.70
23377;DHT22;14353;46.070;13.222;2023-07-20T02:19:56;32.80;49.70
23377;DHT22;14353;46.070;13.222;2023-07-20T02:22:23;32.80;49.80
23377;DHT22;14353;46.070;13.222;2023-07-20T02:24:48;32.80;49.80
23377;DHT22;14353;46.070;13.222;2023-07-20T02:27:15;32.80;49.80
23377;DHT22;14353;46.070;13.222;2023-07-20T02:29:41;32.80;49.80
23377;DHT22;14353;46.070;13.222;2023-07-20T02:32:08;32.80;49.80
23377;DHT22;14353;46.070;13.222;2023-07-20T02:34:35;32.80;49.80
23377;DHT22;14353;46.070;13.222;2023-07-20T02:37:01;32.80;49.80
23377;DHT22;14353;46.070;13.222;2023-07-20T02:39:27;32.80;49.80
23377;DHT22;14353;46.070;13.222;2023-07-20T02:41:54;32.80;49.80
23377;DHT22;14353;46.070;13.222;2023-07-20T02:44:19;32.70;49.70
23377;DHT22;14353;46.070;13.222;2023-07-20T02:46:45;32.80;49.80
23377;DHT22;14353;46.070;13.222;2023-07-20T02:49:11;32.80;49.80
23377;DHT22;14353;46.070;13.222;2023-07-20T02:51:37;32.70;49.70
23377;DHT22;14353;46.070;13.222;2023-07-20T02:54:03;32.70;49.70
23377;DHT22;14353;46.070;13.222;2023-07-20T02:56:29;32.70;49.70
23377;DHT22;14353;46.070;13.222;2023-07-20T02:58:55;32.70;49.70
23377;DHT22;14353;46.070;13.222;2023-07-20T03:01:20;32.70;49.70
23377;DHT22;14353;46.070;13.222;2023-07-20T03:03:46;32.70;49.70
23377;DHT22;14353;46.070;13.222;2023-07-20T03:06:16;32.70;49.70
23377;DHT22;14353;46.070;13.222;2023-07-20T03:08:42;32.70;49.70
23377;DHT22;14353;46.070;13.222;2023-07-20T03:11:13;32.70;49.70
23377;DHT22;14353;46.070;13.222;2023-07-20T03:13:41;32.70;49.70
23377;DHT22;14353;46.070;13.222;2023-07-20T03:16:08;32.70;49.70
23377;DHT22;14353;46.070;13.222;2023-07-20T03:18:37;32.70;49.70
23377;DHT22;14353;46.070;13.222;2023-07-20T03:21:04;32.70;49.80
23377;DHT22;14353;46.070;13.222;2023-07-20T03:23:30;32.60;49.70
23377;DHT22;14353;46.070;13.222;2023-07-20T03:25:56;32.60;49.70
23377;DHT22;14353;46.070;13.222;2023-07-20T03:28:22;32.70;49.80
23377;DHT22;14353;46.070;13.222;2023-07-20T03:30:53;32.60;49.80
23377;DHT22;14353;46.070;13.222;2023-07-20T03:33:21;32.60;49.80
23377;DHT22;14353;46.070;13.222;2023-07-20T03:35:47;32.60;49.80
23377;DHT22;14353;46.070;13.222;2023-07-20T03:38:12;32.60;49.80
23377;DHT22;14353;46.070;13.222;2023-07-20T03:40:38;32.70;49.80
23377;DHT22;14353;46.070;13.222;2023-07-20T03:43:04;32.60;49.80
23377;DHT22;14353;46.070;13.222;2023-07-20T03:45:29;32.60;49.80
23377;DHT22;14353;46.070;13.222;2023-07-20T03:47:55;32.60;49.80
23377;DHT22;14353;46.070;13.222;2023-07-20T03:50:21;32.60;49.80
23377;DHT22;14353;46.070;13.222;2023-07-20T03:52:47;32.60;49.80
23377;DHT22;14353;46.070;13.222;2023-07-20T03:55:13;32.60;49.80
23377;DHT22;14353;46.070;13.222;2023-07-20T03:57:39;32.60;49.80
23377;DHT22;14353;46.070;13.222;2023-07-20T04:00:05;32.60;49.80
23377;DHT22;14353;46.070;13.222;2023-07-20T04:02:33;32.60;49.80
23377;DHT22;14353;46.070;13.222;2023-07-20T04:05:01;32.60;49.80
23377;DHT22;14353;46.070;13.222;2023-07-20T04:07:27;32.60;49.80
23377;DHT22;14353;46.070;13.222;2023-07-20T04:09:53;32.60;49.80
23377;DHT22;14353;46.070;13.222;2023-07-20T04:12:18;32.60;49.80
23377;DHT22;14353;46.070;13.222;2023-07-20T04:14:44;32.60;49.80
23377;DHT22;14353;46.070;13.222;2023-07-20T04:17:10;32.60;49.80
23377;DHT22;14353;46.070;13.222;2023-07-20T04:19:38;32.60;49.80
23377;DHT22;14353;46.070;13.222;2023-07-20T04:22:04;32.60;49.80
23377;DHT22;14353;46.070;13.222;2023-07-20T04:24:30;32.60;49.80
23377;DHT22;14353;46.070;13.222;2023-07-20T04:26:55;32.60;49.80
23377;DHT22;14353;46.070;13.222;2023-07-20T04:29:21;32.60;49.80
23377;DHT22;14353;46.070;13.222;2023-07-20T04:31:47;32.60;49.80
23377;DHT22;14353;46.070;13.222;2023-07-20T04:34:12;32.60;49.80
23377;DHT22;14353;46.070;13.222;2023-07-20T04:36:38;32.60;49.70
23377;DHT22;14353;46.070;13.222;2023-07-20T04:39:04;32.60;49.80
23377;DHT22;14353;46.070;13.222;2023-07-20T04:41:30;32.60;49.70
23377;DHT22;14353;46.070;13.222;2023-07-20T04:43:56;32.60;50.30
23377;DHT22;14353;46.070;13.222;2023-07-20T04:46:21;32.60;49.70
23377;DHT22;14353;46.070;13.222;2023-07-20T04:48:47;32.60;49.70
23377;DHT22;14353;46.070;13.222;2023-07-20T04:51:13;32.60;49.70
23377;DHT22;14353;46.070;13.222;2023-07-20T04:53:39;32.60;49.70
23377;DHT22;14353;46.070;13.222;2023-07-20T04:56:05;32.60;49.70
23377;DHT22;14353;46.070;13.222;2023-07-20T04:58:30;32.60;49.60
23377;DHT22;14353;46.070;13.222;2023-07-20T05:00:56;32.60;49.60
23377;DHT22;14353;46.070;13.222;2023-07-20T05:03:21;32.60;49.60
23377;DHT22;14353;46.070;13.222;2023-07-20T05:05:47;32.60;49.60
23377;DHT22;14353;46.070;13.222;2023-07-20T05:08:16;32.60;49.60
23377;DHT22;14353;46.070;13.222;2023-07-20T05:10:42;32.60;49.50
23377;DHT22;14353;46.070;13.222;2023-07-20T05:13:08;32.60;49.50
23377;DHT22;14353;46.070;13.222;2023-07-20T05:15:33;32.60;50.20
23377;DHT22;14353;46.070;13.222;2023-07-20T05:18:02;32.60;49.50
23377;DHT22;14353;46.070;13.222;2023-07-20T05:20:28;32.60;49.40
23377;DHT22;14353;46.070;13.222;2023-07-20T05:22:53;32.60;49.40
23377;DHT22;14353;46.070;13.222;2023-07-20T05:25:19;32.60;49.40
23377;DHT22;14353;46.070;13.222;2023-07-20T05:27:48;32.60;49.40
23377;DHT22;14353;46.070;13.222;2023-07-20T05:30:13;32.60;49.40
23377;DHT22;14353;46.070;13.222;2023-07-20T05:32:39;32.60;49.40
23377;DHT22;14353;46.070;13.222;2023-07-20T05:35:05;32.60;49.40
23377;DHT22;14353;46.070;13.222;2023-07-20T05:37:31;32.60;49.40
23377;DHT22;14353;46.070;13.222;2023-07-20T05:39:57;32.60;49.40
23377;DHT22;14353;46.070;13.222;2023-07-20T05:42:23;32.60;49.40
23377;DHT22;14353;46.070;13.222;2023-07-20T05:44:49;32.60;49.30
23377;DHT22;14353;46.070;13.222;2023-07-20T05:47:18;32.60;49.30
23377;DHT22;14353;46.070;13.222;2023-07-20T05:49:43;32.60;49.40
23377;DHT22;14353;46.070;13.222;2023-07-20T05:52:09;32.60;49.30
23377;DHT22;14353;46.070;13.222;2023-07-20T05:54:35;32.60;49.30
23377;DHT22;14353;46.070;13.222;2023-07-20T05:57:00;32.60;50.00
23377;DHT22;14353;46.070;13.222;2023-07-20T05:59:27;32.60;49.30
23377;DHT22;14353;46.070;13.222;2023-07-20T06:01:55;32.60;49.30
23377;DHT22;14353;46.070;13.222;2023-07-20T06:04:20;32.60;49.30
23377;DHT22;14353;46.070;13.222;2023-07-20T06:06:46;32.60;49.30
23377;DHT22;14353;46.070;13.222;2023-07-20T06:09:12;32.60;49.30
23377;DHT22;14353;46.070;13.222;2023-07-20T06:11:38;32.60;49.30
23377;DHT22;14353;46.070;13.222;2023-07-20T06:14:04;32.60;49.30
23377;DHT22;14353;46.070;13.222;2023-07-20T06:16:30;32.60;49.30
23377;DHT22;14353;46.070;13.222;2023-07-20T06:18:56;32.60;49.30
23377;DHT22;14353;46.070;13.222;2023-07-20T06:21:22;32.60;49.30
23377;DHT22;14353;46.070;13.222;2023-07-20T06:23:47;32.60;49.30
23377;DHT22;14353;46.070;13.222;2023-07-20T06:26:13;32.60;49.30
23377;DHT22;14353;46.070;13.222;2023-07-20T06:28:39;32.60;49.30
23377;DHT22;14353;46.070;13.222;2023-07-20T06:31:04;32.60;49.30
23377;DHT22;14353;46.070;13.222;2023-07-20T06:33:30;32.70;49.30
23377;DHT22;14353;46.070;13.222;2023-07-20T06:35:57;32.60;49.20
23377;DHT22;14353;46.070;13.222;2023-07-20T06:38:23;32.70;49.20
23377;DHT22;14353;46.070;13.222;2023-07-20T06:40:49;32.70;49.20
23377;DHT22;14353;46.070;13.222;2023-07-20T06:43:15;32.70;49.20
23377;DHT22;14353;46.070;13.222;2023-07-20T06:45:41;32.70;49.10
23377;DHT22;14353;46.070;13.222;2023-07-20T06:48:07;32.70;49.10
23377;DHT22;14353;46.070;13.222;2023-07-20T06:50:33;32.70;49.10
23377;DHT22;14353;46.070;13.222;2023-07-20T06:52:59;32.70;49.10
23377;DHT22;14353;46.070;13.222;2023-07-20T06:55:25;32.70;49.10
23377;DHT22;14353;46.070;13.222;2023-07-20T06:57:51;32.70;49.00
23377;DHT22;14353;46.070;13.222;2023-07-20T07:00:17;32.70;49.10
23377;DHT22;14353;46.070;13.222;2023-07-20T07:02:43;32.70;49.00
23377;DHT22;14353;46.070;13.222;2023-07-20T07:05:09;32.70;49.00
23377;DHT22;14353;46.070;13.222;2023-07-20T07:07:35;32.70;49.00
23377;DHT22;14353;46.070;13.222;2023-07-20T07:10:01;32.70;48.90
23377;DHT22;14353;46.070;13.222;2023-07-20T07:12:26;32.80;49.00
23377;DHT22;14353;46.070;13.222;2023-07-20T07:14:52;32.80;49.00
23377;DHT22;14353;46.070;13.222;2023-07-20T07:17:19;32.80;48.90
23377;DHT22;14353;46.070;13.222;2023-07-20T07:19:44;32.80;48.90
23377;DHT22;14353;46.070;13.222;2023-07-20T07:22:10;32.80;48.90
23377;DHT22;14353;46.070;13.222;2023-07-20T07:24:37;32.80;48.80
23377;DHT22;14353;46.070;13.222;2023-07-20T07:27:03;32.80;48.80
23377;DHT22;14353;46.070;13.222;2023-07-20T07:29:29;32.80;48.70
23377;DHT22;14353;46.070;13.222;2023-07-20T07:31:55;32.80;48.70
23377;DHT22;14353;46.070;13.222;2023-07-20T07:34:20;32.90;48.70
23377;DHT22;14353;46.070;13.222;2023-07-20T07:36:46;32.90;48.70
23377;DHT22;14353;46.070;13.222;2023-07-20T07:39:12;32.90;48.70
23377;DHT22;14353;46.070;13.222;2023-07-20T07:41:38;32.90;48.60
23377;DHT22;14353;46.070;13.222;2023-07-20T07:44:04;32.90;48.60
23377;DHT22;14353;46.070;13.222;2023-07-20T07:46:30;32.90;48.50
23377;DHT22;14353;46.070;13.222;2023-07-20T07:48:56;32.90;48.50
23377;DHT22;14353;46.070;13.222;2023-07-20T07:51:21;32.90;48.50
23377;DHT22;14353;46.070;13.222;2023-07-20T07:53:47;32.90;48.50
23377;DHT22;14353;46.070;13.222;2023-07-20T07:56:14;32.90;48.40
23377;DHT22;14353;46.070;13.222;2023-07-20T07:58:40;32.90;48.30
23377;DHT22;14353;46.070;13.222;2023-07-20T08:01:06;32.90;48.30
23377;DHT22;14353;46.070;13.222;2023-07-20T08:03:31;33.00;48.30
23377;DHT22;14353;46.070;13.222;2023-07-20T08:05:57;33.00;48.30
23377;DHT22;14353;46.070;13.222;2023-07-20T08:08:25;33.00;48.30
23377;DHT22;14353;46.070;13.222;2023-07-20T08:10:53;33.00;48.30
23377;DHT22;14353;46.070;13.222;2023-07-20T08:13:20;33.00;49.00
23377;DHT22;14353;46.070;13.222;2023-07-20T08:15:50;33.00;48.30
23377;DHT22;14353;46.070;13.222;2023-07-20T08:18:17;33.00;48.30
23377;DHT22;14353;46.070;13.222;2023-07-20T08:20:46;33.00;46.10
23377;DHT22;14353;46.070;13.222;2023-07-20T08:23:12;33.00;46.40
23377;DHT22;14353;46.070;13.222;2023-07-20T08:25:39;33.00;47.10
23377;DHT22;14353;46.070;13.222;2023-07-20T08:28:07;33.00;47.20
23377;DHT22;14353;46.070;13.222;2023-07-20T08:30:49;33.00;47.30
23377;DHT22;14353;46.070;13.222;2023-07-20T08:33:16;33.00;47.30
23377;DHT22;14353;46.070;13.222;2023-07-20T08:35:44;33.00;47.20
23377;DHT22;14353;46.070;13.222;2023-07-20T08:38:10;33.00;47.20
23377;DHT22;14353;46.070;13.222;2023-07-20T08:40:41;33.00;47.10
23377;DHT22;14353;46.070;13.222;2023-07-20T08:43:07;33.00;47.00
23377;DHT22;14353;46.070;13.222;2023-07-20T08:45:34;33.00;46.90
23377;DHT22;14353;46.070;13.222;2023-07-20T08:48:06;33.10;47.00
23377;DHT22;14353;46.070;13.222;2023-07-20T08:50:33;33.10;46.80
23377;DHT22;14353;46.070;13.222;2023-07-20T08:53:00;33.10;46.70
23377;DHT22;14353;46.070;13.222;2023-07-20T08:55:27;33.10;46.70
23377;DHT22;14353;46.070;13.222;2023-07-20T08:57:54;33.10;46.70
23377;DHT22;14353;46.070;13.222;2023-07-20T09:00:21;33.10;46.60
23377;DHT22;14353;46.070;13.222;2023-07-20T09:02:49;33.10;46.60
23377;DHT22;14353;46.070;13.222;2023-07-20T09:05:16;33.10;46.60
23377;DHT22;14353;46.070;13.222;2023-07-20T09:07:42;33.10;46.60
23377;DHT22;14353;46.070;13.222;2023-07-20T09:10:08;33.20;46.60
23377;DHT22;14353;46.070;13.222;2023-07-20T09:12:39;33.20;46.60
23377;DHT22;14353;46.070;13.222;2023-07-20T09:15:06;33.20;46.50
23377;DHT22;14353;46.070;13.222;2023-07-20T09:17:32;33.20;46.60
23377;DHT22;14353;46.070;13.222;2023-07-20T09:19:58;33.10;46.50
23377;DHT22;14353;46.070;13.222;2023-07-20T09:22:30;33.10;46.40
23377;DHT22;14353;46.070;13.222;2023-07-20T09:24:57;33.20;46.40
23377;DHT22;14353;46.070;13.222;2023-07-20T09:27:34;33.20;46.40
23377;DHT22;14353;46.070;13.222;2023-07-20T09:30:01;33.20;46.40
23377;DHT22;14353;46.070;13.222;2023-07-20T09:32:27;33.20;46.30
23377;DHT22;14353;46.070;13.222;2023-07-20T09:34:53;33.20;46.30
23377;DHT22;14353;46.070;13.222;2023-07-20T09:37:22;33.20;46.30
23377;DHT22;14353;46.070;13.222;2023-07-20T09:39:48;33.20;46.30
23377;DHT22;14353;46.070;13.222;2023-07-20T09:42:16;33.20;46.20
23377;DHT22;14353;46.070;13.222;2023-07-20T09:44:45;33.20;46.10
23377;DHT22;14353;46.070;13.222;2023-07-20T09:47:11;33.20;46.10
23377;DHT22;14353;46.070;13.222;2023-07-20T09:49:40;33.20;46.10
23377;DHT22;14353;46.070;13.222;2023-07-20T09:52:09;33.20;46.00
23377;DHT22;14353;46.070;13.222;2023-07-20T09:54:38;33.20;46.10
23377;DHT22;14353;46.070;13.222;2023-07-20T09:57:05;33.20;45.90
23377;DHT22;14353;46.070;13.222;2023-07-20T09:59:32;33.20;46.00
23377;DHT22;14353;46.070;13.222;2023-07-20T10:01:58;33.20;46.00
23377;DHT22;14353;46.070;13.222;2023-07-20T10:04:26;33.20;45.80
23377;DHT22;14353;46.070;13.222;2023-07-20T10:06:55;33.20;45.80
23377;DHT22;14353;46.070;13.222;2023-07-20T10:09:24;33.20;45.80
23377;DHT22;14353;46.070;13.222;2023-07-20T10:11:51;33.30;45.90
23377;DHT22;14353;46.070;13.222;2023-07-20T10:14:20;33.30;45.90
23377;DHT22;14353;46.070;13.222;2023-07-20T10:16:50;33.30;45.80
23377;DHT22;14353;46.070;13.222;2023-07-20T10:19:31;33.30;45.70
23377;DHT22;14353;46.070;13.222;2023-07-20T10:22:12;33.30;45.70
23377;DHT22;14353;46.070;13.222;2023-07-20T10:24:39;33.30;45.70
23377;DHT22;14353;46.070;13.222;2023-07-20T10:27:07;33.30;45.60
23377;DHT22;14353;46.070;13.222;2023-07-20T10:29:33;33.30;45.50
23377;DHT22;14353;46.070;13.222;2023-07-20T10:32:00;33.40;45.50
23377;DHT22;14353;46.070;13.222;2023-07-20T10:34:26;33.30;45.50
23377;DHT22;14353;46.070;13.222;2023-07-20T10:36:51;33.30;45.50
23377;DHT22;14353;46.070;13.222;2023-07-20T10:39:25;33.30;45.50
23377;DHT22;14353;46.070;13.222;2023-07-20T10:42:02;33.40;45.60
23377;DHT22;14353;46.070;13.222;2023-07-20T10:44:29;33.30;45.30
23377;DHT22;14353;46.070;13.222;2023-07-20T10:47:02;33.40;45.50
23377;DHT22;14353;46.070;13.222;2023-07-20T10:49:33;33.40;45.40
23377;DHT22;14353;46.070;13.222;2023-07-20T10:51:59;33.40;45.40
23377;DHT22;14353;46.070;13.222;2023-07-20T10:56:51;33.40;45.40
23377;DHT22;14353;46.070;13.222;2023-07-20T10:59:35;33.40;45.30
23377;DHT22;14353;46.070;13.222;2023-07-20T11:02:08;33.40;45.40
23377;DHT22;14353;46.070;13.222;2023-07-20T11:07:03;33.40;45.30
23377;DHT22;14353;46.070;13.222;2023-07-20T11:09:34;33.40;45.30
23377;DHT22;14353;46.070;13.222;2023-07-20T11:12:17;33.40;45.10
23377;DHT22;14353;46.070;13.222;2023-07-20T11:15:02;33.50;45.30
23377;DHT22;14353;46.070;13.222;2023-07-20T11:17:31;33.50;45.60
23377;DHT22;14353;46.070;13.222;2023-07-20T11:19:59;33.50;45.20
23377;DHT22;14353;46.070;13.222;2023-07-20T11:22:30;33.50;45.20
23377;DHT22;14353;46.070;13.222;2023-07-20T11:24:57;33.50;45.20
23377;DHT22;14353;46.070;13.222;2023-07-20T11:27:22;33.50;45.00
23377;DHT22;14353;46.070;13.222;2023-07-20T11:29:49;33.50;45.20
23377;DHT22;14353;46.070;13.222;2023-07-20T11:32:24;33.50;45.30
23377;DHT22;14353;46.070;13.222;2023-07-20T11:34:50;33.50;45.20
23377;DHT22;14353;46.070;13.222;2023-07-20T11:37:19;33.50;45.10
23377;DHT22;14353;46.070;13.222;2023-07-20T11:39:45;33.50;45.00
23377;DHT22;14353;46.070;13.222;2023-07-20T11:42:11;33.60;45.00
23377;DHT22;14353;46.070;13.222;2023-07-20T11:44:38;33.50;44.80
23377;DHT22;14353;46.070;13.222;2023-07-20T11:49:30;33.50;44.80
23377;DHT22;14353;46.070;13.222;2023-07-20T11:51:57;33.60;44.90
23377;DHT22;14353;46.070;13.222;2023-07-20T11:54:24;33.60;44.90
23377;DHT22;14353;46.070;13.222;2023-07-20T11:56:54;33.60;44.80
23377;DHT22;14353;46.070;13.222;2023-07-20T11:59:23;33.60;44.70
23377;DHT22;14353;46.070;13.222;2023-07-20T12:01:49;33.60;44.70
23377;DHT22;14353;46.070;13.222;2023-07-20T12:04:15;33.60;44.60
23377;DHT22;14353;46.070;13.222;2023-07-20T12:06:41;33.60;44.60
23377;DHT22;14353;46.070;13.222;2023-07-20T12:09:14;33.70;44.70
23377;DHT22;14353;46.070;13.222;2023-07-20T12:11:40;33.70;44.60
23377;DHT22;14353;46.070;13.222;2023-07-20T12:14:09;33.70;44.50
23377;DHT22;14353;46.070;13.222;2023-07-20T12:16:36;33.70;44.70
23377;DHT22;14353;46.070;13.222;2023-07-20T12:19:08;33.70;44.40
23377;DHT22;14353;46.070;13.222;2023-07-20T12:21:37;33.70;44.50
23377;DHT22;14353;46.070;13.222;2023-07-20T12:24:04;33.70;44.40
23377;DHT22;14353;46.070;13.222;2023-07-20T12:26:30;33.70;44.40
23377;DHT22;14353;46.070;13.222;2023-07-20T12:28:56;33.80;44.40
23377;DHT22;14353;46.070;13.222;2023-07-20T12:31:23;33.80;44.40
23377;DHT22;14353;46.070;13.222;2023-07-20T12:33:53;33.80;44.30
23377;DHT22;14353;46.070;13.222;2023-07-20T12:36:21;33.80;44.20
23377;DHT22;14353;46.070;13.222;2023-07-20T12:38:46;33.80;44.30
23377;DHT22;14353;46.070;13.222;2023-07-20T12:41:13;33.80;44.30
23377;DHT22;14353;46.070;13.222;2023-07-20T12:43:43;33.90;44.30
23377;DHT22;14353;46.070;13.222;2023-07-20T12:46:10;33.90;44.20
23377;DHT22;14353;46.070;13.222;2023-07-20T12:48:36;33.90;44.20
23377;DHT22;14353;46.070;13.222;2023-07-20T12:51:07;33.90;44.20
23377;DHT22;14353;46.070;13.222;2023-07-20T12:53:33;33.90;44.20
23377;DHT22;14353;46.070;13.222;2023-07-20T12:55:59;33.90;44.10
23377;DHT22;14353;46.070;13.222;2023-07-20T12:58:26;33.90;44.10
23377;DHT22;14353;46.070;13.222;2023-07-20T13:00:51;33.90;44.20
23377;DHT22;14353;46.070;13.222;2023-07-20T13:03:17;34.00;44.30
23377;DHT22;14353;46.070;13.222;2023-07-20T13:05:48;34.00;44.20
23377;DHT22;14353;46.070;13.222;2023-07-20T13:08:14;34.00;44.20
23377;DHT22;14353;46.070;13.222;2023-07-20T13:10:40;34.00;44.10
23377;DHT22;14353;46.070;13.222;2023-07-20T13:13:07;34.00;44.10
23377;DHT22;14353;46.070;13.222;2023-07-20T13:15:40;34.00;44.00
23377;DHT22;14353;46.070;13.222;2023-07-20T13:18:06;34.00;44.00
23377;DHT22;14353;46.070;13.222;2023-07-20T13:20:32;34.10;44.10
23377;DHT22;14353;46.070;13.222;2023-07-20T13:22:57;34.10;44.00
23377;DHT22;14353;46.070;13.222;2023-07-20T13:25:24;34.10;44.00
23377;DHT22;14353;46.070;13.222;2023-07-20T13:27:49;34.20;44.10
23377;DHT22;14353;46.070;13.222;2023-07-20T13:30:15;34.20;44.00
23377;DHT22;14353;46.070;13.222;2023-07-20T13:32:45;34.20;44.00
23377;DHT22;14353;46.070;13.222;2023-07-20T13:35:14;34.20;44.00
23377;DHT22;14353;46.070;13.222;2023-07-20T13:37:40;34.20;44.00
23377;DHT22;14353;46.070;13.222;2023-07-20T13:40:07;34.20;44.00
23377;DHT22;14353;46.070;13.222;2023-07-20T13:42:39;34.20;44.00
23377;DHT22;14353;46.070;13.222;2023-07-20T13:45:06;34.20;43.90
23377;DHT22;14353;46.070;13.222;2023-07-20T13:47:32;34.20;44.00
23377;DHT22;14353;46.070;13.222;2023-07-20T13:49:57;34.20;44.00
23377;DHT22;14353;46.070;13.222;2023-07-20T13:52:23;34.20;43.90
23377;DHT22;14353;46.070;13.222;2023-07-20T13:54:49;34.20;43.90
23377;DHT22;14353;46.070;13.222;2023-07-20T13:57:15;34.20;44.00
23377;DHT22;14353;46.070;13.222;2023-07-20T13:59:41;34.20;44.00
23377;DHT22;14353;46.070;13.222;2023-07-20T14:02:07;34.20;44.00
23377;DHT22;14353;46.070;13.222;2023-07-20T14:04:32;34.20;44.10
23377;DHT22;14353;46.070;13.222;2023-07-20T14:06:58;34.20;44.10
23377;DHT22;14353;46.070;13.222;2023-07-20T14:09:24;34.20;44.10
23377;DHT22;14353;46.070;13.222;2023-07-20T14:11:49;34.20;44.20
23377;DHT22;14353;46.070;13.222;2023-07-20T14:14:15;34.10;44.10
23377;DHT22;14353;46.070;13.222;2023-07-20T14:16:41;34.10;44.20
23377;DHT22;14353;46.070;13.222;2023-07-20T14:19:07;34.10;44.30
23377;DHT22;14353;46.070;13.222;2023-07-20T14:21:32;34.10;44.20
23377;DHT22;14353;46.070;13.222;2023-07-20T14:23:58;34.20;44.30
23377;DHT22;14353;46.070;13.222;2023-07-20T14:26:24;34.20;44.40
23377;DHT22;14353;46.070;13.222;2023-07-20T14:28:50;34.20;44.40
23377;DHT22;14353;46.070;13.222;2023-07-20T14:31:16;34.20;44.30
23377;DHT22;14353;46.070;13.222;2023-07-20T14:33:41;34.20;44.30
23377;DHT22;14353;46.070;13.222;2023-07-20T14:36:07;34.20;44.30
23377;DHT22;14353;46.070;13.222;2023-07-20T14:38:34;34.20;44.20
23377;DHT22;14353;46.070;13.222;2023-07-20T14:41:00;34.20;44.20
23377;DHT22;14353;46.070;13.222;2023-07-20T14:43:26;34.30;44.20
23377;DHT22;14353;46.070;13.222;2023-07-20T14:45:51;34.30;44.30
23377;DHT22;14353;46.070;13.222;2023-07-20T14:48:17;34.30;44.20
23377;DHT22;14353;46.070;13.222;2023-07-20T14:50:43;34.30;44.20
23377;DHT22;14353;46.070;13.222;2023-07-20T14:53:12;34.30;44.20
23377;DHT22;14353;46.070;13.222;2023-07-20T14:55:37;34.30;44.20
23377;DHT22;14353;46.070;13.222;2023-07-20T14:58:03;34.30;44.10
23377;DHT22;14353;46.070;13.222;2023-07-20T15:00:29;34.40;44.20
23377;DHT22;14353;46.070;13.222;2023-07-20T15:02:55;34.40;44.10
23377;DHT22;14353;46.070;13.222;2023-07-20T15:05:22;34.40;44.10
23377;DHT22;14353;46.070;13.222;2023-07-20T15:07:48;34.40;44.10
23377;DHT22;14353;46.070;13.222;2023-07-20T15:10:15;34.40;44.10
23377;DHT22;14353;46.070;13.222;2023-07-20T15:12:41;34.40;44.00
23377;DHT22;14353;46.070;13.222;2023-07-20T15:15:09;34.50;44.10
23377;DHT22;14353;46.070;13.222;2023-07-20T15:17:36;34.50;44.00
23377;DHT22;14353;46.070;13.222;2023-07-20T15:20:04;34.50;44.10
23377;DHT22;14353;46.070;13.222;2023-07-20T15:22:31;34.50;44.00
23377;DHT22;14353;46.070;13.222;2023-07-20T15:24:56;34.50;44.00
23377;DHT22;14353;46.070;13.222;2023-07-20T15:27:22;34.50;44.00
23377;DHT22;14353;46.070;13.222;2023-07-20T15:29:49;34.50;44.00
23377;DHT22;14353;46.070;13.222;2023-07-20T15:32:17;34.50;44.00